sensor_id;sensor_type;location;lat;lon;timestamp;P1;durP1;ratioP1;P2;durP2;ratioP2
37349;SDS011;23231;52.358;4.926;2023-04-08T00:02:09;38.80;;;18.65;;
37349;SDS011;23231;52.358;4.926;2023-04-08T00:07:09;41.40;;;19.35;;
37349;SDS011;23231;52.358;4.926;2023-04-08T00:12:10;42.95;;;18.83;;
37349;SDS011;23231;52.358;4.926;2023-04-08T00:17:10;34.38;;;16.38;;
37349;SDS011;23231;52.358;4.926;2023-04-08T00:22:10;38.78;;;17.55;;
37349;SDS011;23231;52.358;4.926;2023-04-08T00:27:11;37.20;;;17.13;;
37349;SDS011;23231;52.358;4.926;2023-04-08T00:32:11;33.83;;;17.13;;
37349;SDS011;23231;52.358;4.926;2023-04-08T00:37:12;39.08;;;17.38;;
37349;SDS011;23231;52.358;4.926;2023-04-08T00:42:12;37.40;;;17.02;;
37349;SDS011;23231;52.358;4.926;2023-04-08T00:47:13;42.42;;;18.05;;
37349;SDS011;23231;52.358;4.926;2023-04-08T00:52:14;46.15;;;18.48;;
37349;SDS011;23231;52.358;4.926;2023-04-08T00:57:15;38.85;;;18.05;;
37349;SDS011;23231;52.358;4.926;2023-04-08T01:02:28;39.33;;;17.63;;
37349;SDS011;23231;52.358;4.926;2023-04-08T01:07:31;35.78;;;17.48;;
37349;SDS011;23231;52.358;4.926;2023-04-08T01:12:36;41.58;;;18.30;;
37349;SDS011;23231;52.358;4.926;2023-04-08T01:17:41;37.03;;;17.45;;
37349;SDS011;23231;52.358;4.926;2023-04-08T01:27:42;41.40;;;18.23;;
37349;SDS011;23231;52.358;4.926;2023-04-08T01:32:43;38.85;;;17.48;;
37349;SDS011;23231;52.358;4.926;2023-04-08T01:37:45;37.53;;;16.05;;
37349;SDS011;23231;52.358;4.926;2023-04-08T01:42:47;41.17;;;17.58;;
37349;SDS011;23231;52.358;4.926;2023-04-08T01:47:48;46.30;;;19.33;;
37349;SDS011;23231;52.358;4.926;2023-04-08T01:52:49;45.85;;;19.27;;
37349;SDS011;23231;52.358;4.926;2023-04-08T01:57:52;56.90;;;22.80;;
37349;SDS011;23231;52.358;4.926;2023-04-08T02:02:55;67.88;;;24.10;;
37349;SDS011;23231;52.358;4.926;2023-04-08T02:07:56;70.88;;;25.30;;
37349;SDS011;23231;52.358;4.926;2023-04-08T02:12:57;52.50;;;21.20;;
37349;SDS011;23231;52.358;4.926;2023-04-08T02:17:59;41.60;;;17.48;;
37349;SDS011;23231;52.358;4.926;2023-04-08T02:23:12;37.70;;;18.27;;
37349;SDS011;23231;52.358;4.926;2023-04-08T02:28:16;38.28;;;17.92;;
37349;SDS011;23231;52.358;4.926;2023-04-08T02:33:21;35.88;;;17.17;;
37349;SDS011;23231;52.358;4.926;2023-04-08T02:38:21;45.78;;;19.85;;
37349;SDS011;23231;52.358;4.926;2023-04-08T02:43:23;52.33;;;20.60;;
37349;SDS011;23231;52.358;4.926;2023-04-08T02:48:31;49.72;;;19.92;;
37349;SDS011;23231;52.358;4.926;2023-04-08T02:53:32;41.10;;;17.75;;
37349;SDS011;23231;52.358;4.926;2023-04-08T02:58:32;41.30;;;18.80;;
37349;SDS011;23231;52.358;4.926;2023-04-08T03:03:33;39.25;;;19.27;;
37349;SDS011;23231;52.358;4.926;2023-04-08T03:08:33;43.00;;;20.00;;
37349;SDS011;23231;52.358;4.926;2023-04-08T03:13:33;39.83;;;18.23;;
37349;SDS011;23231;52.358;4.926;2023-04-08T03:18:34;40.58;;;19.83;;
37349;SDS011;23231;52.358;4.926;2023-04-08T03:23:34;39.33;;;19.98;;
37349;SDS011;23231;52.358;4.926;2023-04-08T03:28:35;39.97;;;18.60;;
37349;SDS011;23231;52.358;4.926;2023-04-08T03:33:35;34.53;;;18.33;;
37349;SDS011;23231;52.358;4.926;2023-04-08T03:38:36;35.38;;;18.05;;
37349;SDS011;23231;52.358;4.926;2023-04-08T03:43:36;34.78;;;17.45;;
37349;SDS011;23231;52.358;4.926;2023-04-08T03:48:36;32.60;;;17.95;;
37349;SDS011;23231;52.358;4.926;2023-04-08T03:53:37;29.77;;;17.25;;
37349;SDS011;23231;52.358;4.926;2023-04-08T03:58:37;34.58;;;18.48;;
37349;SDS011;23231;52.358;4.926;2023-04-08T04:03:38;33.72;;;19.27;;
37349;SDS011;23231;52.358;4.926;2023-04-08T04:08:38;34.03;;;18.10;;
37349;SDS011;23231;52.358;4.926;2023-04-08T04:13:39;31.88;;;18.33;;
37349;SDS011;23231;52.358;4.926;2023-04-08T04:18:42;37.28;;;20.05;;
37349;SDS011;23231;52.358;4.926;2023-04-08T04:23:42;30.55;;;17.92;;
37349;SDS011;23231;52.358;4.926;2023-04-08T04:28:43;35.35;;;18.70;;
37349;SDS011;23231;52.358;4.926;2023-04-08T04:33:43;37.50;;;18.88;;
37349;SDS011;23231;52.358;4.926;2023-04-08T04:38:44;31.83;;;18.15;;
37349;SDS011;23231;52.358;4.926;2023-04-08T04:43:45;36.05;;;18.65;;
37349;SDS011;23231;52.358;4.926;2023-04-08T04:48:45;35.05;;;19.58;;
37349;SDS011;23231;52.358;4.926;2023-04-08T04:53:45;35.35;;;19.02;;
37349;SDS011;23231;52.358;4.926;2023-04-08T04:58:47;36.20;;;19.17;;
37349;SDS011;23231;52.358;4.926;2023-04-08T05:03:47;38.25;;;19.63;;
37349;SDS011;23231;52.358;4.926;2023-04-08T05:08:47;35.63;;;19.85;;
37349;SDS011;23231;52.358;4.926;2023-04-08T05:13:48;40.38;;;22.02;;
37349;SDS011;23231;52.358;4.926;2023-04-08T05:18:48;37.50;;;21.00;;
37349;SDS011;23231;52.358;4.926;2023-04-08T05:23:49;36.72;;;19.95;;
37349;SDS011;23231;52.358;4.926;2023-04-08T05:28:52;37.13;;;20.27;;
37349;SDS011;23231;52.358;4.926;2023-04-08T05:33:53;33.25;;;19.05;;
37349;SDS011;23231;52.358;4.926;2023-04-08T05:38:53;30.00;;;16.98;;
37349;SDS011;23231;52.358;4.926;2023-04-08T05:43:53;39.35;;;20.70;;
37349;SDS011;23231;52.358;4.926;2023-04-08T05:48:54;33.13;;;18.48;;
37349;SDS011;23231;52.358;4.926;2023-04-08T05:53:54;30.38;;;18.13;;
37349;SDS011;23231;52.358;4.926;2023-04-08T05:58:55;35.83;;;18.43;;
37349;SDS011;23231;52.358;4.926;2023-04-08T06:03:55;27.92;;;16.20;;
37349;SDS011;23231;52.358;4.926;2023-04-08T06:08:56;27.13;;;16.10;;
37349;SDS011;23231;52.358;4.926;2023-04-08T06:13:56;26.13;;;15.10;;
37349;SDS011;23231;52.358;4.926;2023-04-08T06:18:56;24.55;;;15.18;;
37349;SDS011;23231;52.358;4.926;2023-04-08T06:23:57;28.45;;;15.02;;
37349;SDS011;23231;52.358;4.926;2023-04-08T06:28:57;24.20;;;14.25;;
37349;SDS011;23231;52.358;4.926;2023-04-08T06:33:58;23.73;;;13.70;;
37349;SDS011;23231;52.358;4.926;2023-04-08T06:38:58;21.75;;;13.38;;
37349;SDS011;23231;52.358;4.926;2023-04-08T06:43:59;19.60;;;12.05;;
37349;SDS011;23231;52.358;4.926;2023-04-08T06:48:59;18.90;;;11.80;;
37349;SDS011;23231;52.358;4.926;2023-04-08T06:53:59;20.05;;;12.23;;
37349;SDS011;23231;52.358;4.926;2023-04-08T06:59:00;19.15;;;11.65;;
37349;SDS011;23231;52.358;4.926;2023-04-08T07:04:00;16.55;;;10.75;;
37349;SDS011;23231;52.358;4.926;2023-04-08T07:09:01;19.63;;;11.77;;
37349;SDS011;23231;52.358;4.926;2023-04-08T07:14:01;18.00;;;10.48;;
37349;SDS011;23231;52.358;4.926;2023-04-08T07:19:02;16.98;;;10.80;;
37349;SDS011;23231;52.358;4.926;2023-04-08T07:24:02;16.98;;;10.30;;
37349;SDS011;23231;52.358;4.926;2023-04-08T07:29:03;15.40;;;10.02;;
37349;SDS011;23231;52.358;4.926;2023-04-08T07:34:03;19.73;;;10.55;;
37349;SDS011;23231;52.358;4.926;2023-04-08T07:39:04;15.02;;;9.40;;
37349;SDS011;23231;52.358;4.926;2023-04-08T07:44:05;12.88;;;8.60;;
37349;SDS011;23231;52.358;4.926;2023-04-08T07:49:06;11.52;;;8.13;;
37349;SDS011;23231;52.358;4.926;2023-04-08T07:54:07;13.25;;;8.43;;
37349;SDS011;23231;52.358;4.926;2023-04-08T07:59:09;14.13;;;8.73;;
37349;SDS011;23231;52.358;4.926;2023-04-08T08:04:10;13.93;;;9.55;;
37349;SDS011;23231;52.358;4.926;2023-04-08T08:09:11;13.23;;;8.57;;
37349;SDS011;23231;52.358;4.926;2023-04-08T08:14:11;16.38;;;9.10;;
37349;SDS011;23231;52.358;4.926;2023-04-08T08:19:13;12.07;;;8.15;;
37349;SDS011;23231;52.358;4.926;2023-04-08T08:24:13;14.25;;;7.95;;
37349;SDS011;23231;52.358;4.926;2023-04-08T08:29:13;12.30;;;8.50;;
37349;SDS011;23231;52.358;4.926;2023-04-08T08:34:14;14.40;;;9.07;;
37349;SDS011;23231;52.358;4.926;2023-04-08T08:39:15;15.07;;;9.20;;
37349;SDS011;23231;52.358;4.926;2023-04-08T08:44:15;14.52;;;9.02;;
37349;SDS011;23231;52.358;4.926;2023-04-08T08:49:16;18.58;;;10.05;;
37349;SDS011;23231;52.358;4.926;2023-04-08T08:54:16;15.82;;;10.07;;
37349;SDS011;23231;52.358;4.926;2023-04-08T08:59:16;16.88;;;10.68;;
37349;SDS011;23231;52.358;4.926;2023-04-08T09:04:18;17.52;;;11.20;;
37349;SDS011;23231;52.358;4.926;2023-04-08T09:09:19;16.65;;;10.65;;
37349;SDS011;23231;52.358;4.926;2023-04-08T09:14:20;18.83;;;11.68;;
37349;SDS011;23231;52.358;4.926;2023-04-08T09:19:22;19.50;;;11.93;;
37349;SDS011;23231;52.358;4.926;2023-04-08T09:24:26;19.77;;;10.98;;
37349;SDS011;23231;52.358;4.926;2023-04-08T09:29:28;18.08;;;11.93;;
37349;SDS011;23231;52.358;4.926;2023-04-08T09:34:28;21.20;;;11.85;;
37349;SDS011;23231;52.358;4.926;2023-04-08T09:39:31;15.70;;;10.77;;
37349;SDS011;23231;52.358;4.926;2023-04-08T09:44:31;17.35;;;10.43;;
37349;SDS011;23231;52.358;4.926;2023-04-08T10:00:04;14.80;;;9.90;;
37349;SDS011;23231;52.358;4.926;2023-04-08T10:05:08;14.45;;;8.90;;
37349;SDS011;23231;52.358;4.926;2023-04-08T10:10:11;13.93;;;9.27;;
37349;SDS011;23231;52.358;4.926;2023-04-08T10:15:30;129.23;;;61.97;;
37349;SDS011;23231;52.358;4.926;2023-04-08T10:25:36;17.38;;;11.15;;
37349;SDS011;23231;52.358;4.926;2023-04-08T10:35:39;17.83;;;13.93;;
37349;SDS011;23231;52.358;4.926;2023-04-08T10:40:42;12.60;;;10.23;;
37349;SDS011;23231;52.358;4.926;2023-04-08T10:45:43;12.05;;;9.43;;
37349;SDS011;23231;52.358;4.926;2023-04-08T10:50:55;13.73;;;11.57;;
37349;SDS011;23231;52.358;4.926;2023-04-08T10:56:02;13.93;;;8.82;;
37349;SDS011;23231;52.358;4.926;2023-04-08T11:01:07;14.45;;;10.05;;
37349;SDS011;23231;52.358;4.926;2023-04-08T11:06:07;11.75;;;9.98;;
37349;SDS011;23231;52.358;4.926;2023-04-08T11:11:08;13.43;;;9.23;;
37349;SDS011;23231;52.358;4.926;2023-04-08T11:16:10;13.15;;;10.07;;
37349;SDS011;23231;52.358;4.926;2023-04-08T11:21:10;11.20;;;8.70;;
37349;SDS011;23231;52.358;4.926;2023-04-08T11:26:11;15.00;;;11.43;;
37349;SDS011;23231;52.358;4.926;2023-04-08T11:31:12;9.45;;;7.65;;
37349;SDS011;23231;52.358;4.926;2023-04-08T11:36:13;12.20;;;10.70;;
37349;SDS011;23231;52.358;4.926;2023-04-08T11:41:14;14.88;;;11.75;;
37349;SDS011;23231;52.358;4.926;2023-04-08T11:46:15;15.32;;;12.90;;
37349;SDS011;23231;52.358;4.926;2023-04-08T11:51:16;16.08;;;12.63;;
37349;SDS011;23231;52.358;4.926;2023-04-08T11:56:20;13.48;;;8.52;;
37349;SDS011;23231;52.358;4.926;2023-04-08T12:01:22;15.13;;;9.77;;
37349;SDS011;23231;52.358;4.926;2023-04-08T12:06:22;12.95;;;9.93;;
37349;SDS011;23231;52.358;4.926;2023-04-08T12:11:23;13.23;;;9.77;;
37349;SDS011;23231;52.358;4.926;2023-04-08T12:16:24;12.88;;;9.75;;
37349;SDS011;23231;52.358;4.926;2023-04-08T12:21:24;10.05;;;6.90;;
37349;SDS011;23231;52.358;4.926;2023-04-08T12:26:26;12.30;;;8.20;;
37349;SDS011;23231;52.358;4.926;2023-04-08T12:31:27;9.60;;;6.90;;
37349;SDS011;23231;52.358;4.926;2023-04-08T12:36:27;10.18;;;7.45;;
37349;SDS011;23231;52.358;4.926;2023-04-08T12:41:28;13.43;;;9.00;;
37349;SDS011;23231;52.358;4.926;2023-04-08T12:46:28;11.73;;;8.40;;
37349;SDS011;23231;52.358;4.926;2023-04-08T12:51:30;10.70;;;7.28;;
37349;SDS011;23231;52.358;4.926;2023-04-08T12:56:31;10.95;;;8.35;;
37349;SDS011;23231;52.358;4.926;2023-04-08T13:01:31;14.55;;;12.18;;
37349;SDS011;23231;52.358;4.926;2023-04-08T13:06:32;16.23;;;13.70;;
37349;SDS011;23231;52.358;4.926;2023-04-08T13:11:32;13.45;;;9.10;;
37349;SDS011;23231;52.358;4.926;2023-04-08T13:16:33;28.35;;;21.52;;
37349;SDS011;23231;52.358;4.926;2023-04-08T13:21:33;13.35;;;10.45;;
37349;SDS011;23231;52.358;4.926;2023-04-08T13:26:35;11.20;;;8.48;;
37349;SDS011;23231;52.358;4.926;2023-04-08T13:31:42;13.10;;;9.57;;
37349;SDS011;23231;52.358;4.926;2023-04-08T13:36:45;22.65;;;17.23;;
37349;SDS011;23231;52.358;4.926;2023-04-08T13:41:45;17.45;;;11.93;;
37349;SDS011;23231;52.358;4.926;2023-04-08T13:46:46;16.65;;;11.13;;
37349;SDS011;23231;52.358;4.926;2023-04-08T13:51:46;14.45;;;10.50;;
37349;SDS011;23231;52.358;4.926;2023-04-08T13:56:47;17.98;;;12.35;;
37349;SDS011;23231;52.358;4.926;2023-04-08T14:01:48;18.65;;;12.88;;
37349;SDS011;23231;52.358;4.926;2023-04-08T14:06:52;23.48;;;13.60;;
37349;SDS011;23231;52.358;4.926;2023-04-08T14:11:53;19.83;;;14.18;;
37349;SDS011;23231;52.358;4.926;2023-04-08T14:16:53;26.05;;;12.35;;
37349;SDS011;23231;52.358;4.926;2023-04-08T14:21:53;19.58;;;12.40;;
37349;SDS011;23231;52.358;4.926;2023-04-08T14:26:54;19.20;;;13.50;;
37349;SDS011;23231;52.358;4.926;2023-04-08T14:31:54;20.45;;;13.88;;
37349;SDS011;23231;52.358;4.926;2023-04-08T14:36:55;16.25;;;12.00;;
37349;SDS011;23231;52.358;4.926;2023-04-08T14:41:56;14.77;;;10.95;;
37349;SDS011;23231;52.358;4.926;2023-04-08T14:46:57;14.23;;;10.80;;
37349;SDS011;23231;52.358;4.926;2023-04-08T14:51:57;18.38;;;10.35;;
37349;SDS011;23231;52.358;4.926;2023-04-08T14:56:58;16.88;;;10.68;;
37349;SDS011;23231;52.358;4.926;2023-04-08T15:01:58;16.63;;;10.85;;
37349;SDS011;23231;52.358;4.926;2023-04-08T15:06:59;28.92;;;12.35;;
37349;SDS011;23231;52.358;4.926;2023-04-08T15:11:59;15.93;;;11.18;;
37349;SDS011;23231;52.358;4.926;2023-04-08T15:17:00;17.20;;;10.88;;
37349;SDS011;23231;52.358;4.926;2023-04-08T15:22:00;16.23;;;11.88;;
37349;SDS011;23231;52.358;4.926;2023-04-08T15:27:01;18.00;;;12.13;;
37349;SDS011;23231;52.358;4.926;2023-04-08T15:32:01;16.20;;;12.10;;
37349;SDS011;23231;52.358;4.926;2023-04-08T15:37:01;16.77;;;10.95;;
37349;SDS011;23231;52.358;4.926;2023-04-08T15:42:02;15.93;;;12.88;;
37349;SDS011;23231;52.358;4.926;2023-04-08T15:47:03;17.33;;;13.15;;
37349;SDS011;23231;52.358;4.926;2023-04-08T15:52:03;17.10;;;13.55;;
37349;SDS011;23231;52.358;4.926;2023-04-08T15:57:04;17.27;;;12.75;;
37349;SDS011;23231;52.358;4.926;2023-04-08T16:02:05;17.45;;;12.93;;
37349;SDS011;23231;52.358;4.926;2023-04-08T16:07:05;17.13;;;12.50;;
37349;SDS011;23231;52.358;4.926;2023-04-08T16:12:06;17.15;;;12.77;;
37349;SDS011;23231;52.358;4.926;2023-04-08T16:17:06;16.30;;;12.13;;
37349;SDS011;23231;52.358;4.926;2023-04-08T16:22:08;18.10;;;13.40;;
37349;SDS011;23231;52.358;4.926;2023-04-08T16:27:08;15.68;;;12.68;;
37349;SDS011;23231;52.358;4.926;2023-04-08T16:32:08;13.82;;;10.38;;
37349;SDS011;23231;52.358;4.926;2023-04-08T16:37:09;15.38;;;12.32;;
37349;SDS011;23231;52.358;4.926;2023-04-08T16:42:09;16.20;;;12.43;;
37349;SDS011;23231;52.358;4.926;2023-04-08T16:47:10;15.45;;;12.70;;
37349;SDS011;23231;52.358;4.926;2023-04-08T16:52:10;16.92;;;13.52;;
37349;SDS011;23231;52.358;4.926;2023-04-08T16:57:11;14.60;;;11.85;;
37349;SDS011;23231;52.358;4.926;2023-04-08T17:02:11;17.08;;;12.98;;
37349;SDS011;23231;52.358;4.926;2023-04-08T17:07:12;14.38;;;11.15;;
37349;SDS011;23231;52.358;4.926;2023-04-08T17:12:12;15.20;;;11.60;;
37349;SDS011;23231;52.358;4.926;2023-04-08T17:17:12;16.75;;;12.88;;
37349;SDS011;23231;52.358;4.926;2023-04-08T17:22:13;17.95;;;12.07;;
37349;SDS011;23231;52.358;4.926;2023-04-08T17:27:13;16.27;;;12.55;;
37349;SDS011;23231;52.358;4.926;2023-04-08T17:32:14;20.70;;;13.13;;
37349;SDS011;23231;52.358;4.926;2023-04-08T17:37:14;18.35;;;12.65;;
37349;SDS011;23231;52.358;4.926;2023-04-08T17:42:15;20.55;;;14.45;;
37349;SDS011;23231;52.358;4.926;2023-04-08T17:47:15;20.35;;;15.05;;
37349;SDS011;23231;52.358;4.926;2023-04-08T17:52:16;19.88;;;13.40;;
37349;SDS011;23231;52.358;4.926;2023-04-08T17:57:16;21.55;;;14.75;;
37349;SDS011;23231;52.358;4.926;2023-04-08T18:02:17;20.38;;;15.10;;
37349;SDS011;23231;52.358;4.926;2023-04-08T18:07:17;19.35;;;13.82;;
37349;SDS011;23231;52.358;4.926;2023-04-08T18:12:17;22.98;;;16.15;;
37349;SDS011;23231;52.358;4.926;2023-04-08T18:17:18;24.67;;;16.00;;
37349;SDS011;23231;52.358;4.926;2023-04-08T18:22:19;25.92;;;16.00;;
37349;SDS011;23231;52.358;4.926;2023-04-08T18:27:21;22.55;;;15.32;;
37349;SDS011;23231;52.358;4.926;2023-04-08T18:32:21;26.08;;;16.08;;
37349;SDS011;23231;52.358;4.926;2023-04-08T18:37:22;25.70;;;15.93;;
37349;SDS011;23231;52.358;4.926;2023-04-08T18:42:23;25.98;;;15.55;;
37349;SDS011;23231;52.358;4.926;2023-04-08T18:47:23;25.40;;;15.40;;
37349;SDS011;23231;52.358;4.926;2023-04-08T18:52:24;27.45;;;16.63;;
37349;SDS011;23231;52.358;4.926;2023-04-08T18:57:24;25.40;;;15.35;;
37349;SDS011;23231;52.358;4.926;2023-04-08T19:02:25;22.80;;;15.45;;
37349;SDS011;23231;52.358;4.926;2023-04-08T19:07:25;27.02;;;16.38;;
37349;SDS011;23231;52.358;4.926;2023-04-08T19:12:26;29.63;;;17.35;;
37349;SDS011;23231;52.358;4.926;2023-04-08T19:17:26;30.63;;;17.80;;
37349;SDS011;23231;52.358;4.926;2023-04-08T19:22:27;26.38;;;16.05;;
37349;SDS011;23231;52.358;4.926;2023-04-08T19:27:27;30.60;;;17.55;;
37349;SDS011;23231;52.358;4.926;2023-04-08T19:32:28;27.75;;;16.75;;
37349;SDS011;23231;52.358;4.926;2023-04-08T19:37:28;26.17;;;15.65;;
37349;SDS011;23231;52.358;4.926;2023-04-08T19:42:29;26.65;;;15.68;;
37349;SDS011;23231;52.358;4.926;2023-04-08T19:47:29;26.75;;;15.82;;
37349;SDS011;23231;52.358;4.926;2023-04-08T19:52:30;27.30;;;15.48;;
37349;SDS011;23231;52.358;4.926;2023-04-08T19:57:31;26.52;;;15.02;;
37349;SDS011;23231;52.358;4.926;2023-04-08T20:02:31;26.70;;;15.43;;
37349;SDS011;23231;52.358;4.926;2023-04-08T20:07:31;27.33;;;16.00;;
37349;SDS011;23231;52.358;4.926;2023-04-08T20:12:32;28.15;;;15.60;;
37349;SDS011;23231;52.358;4.926;2023-04-08T20:17:32;28.27;;;17.45;;
37349;SDS011;23231;52.358;4.926;2023-04-08T20:22:33;27.55;;;15.75;;
37349;SDS011;23231;52.358;4.926;2023-04-08T20:27:33;28.45;;;16.27;;
37349;SDS011;23231;52.358;4.926;2023-04-08T20:32:34;30.02;;;17.20;;
37349;SDS011;23231;52.358;4.926;2023-04-08T20:37:35;26.65;;;16.42;;
37349;SDS011;23231;52.358;4.926;2023-04-08T20:42:35;34.65;;;17.85;;
37349;SDS011;23231;52.358;4.926;2023-04-08T20:47:37;27.13;;;17.02;;
37349;SDS011;23231;52.358;4.926;2023-04-08T20:52:38;29.95;;;17.50;;
37349;SDS011;23231;52.358;4.926;2023-04-08T20:57:38;28.65;;;16.92;;
37349;SDS011;23231;52.358;4.926;2023-04-08T21:02:40;26.65;;;16.73;;
37349;SDS011;23231;52.358;4.926;2023-04-08T21:07:40;28.17;;;16.73;;
37349;SDS011;23231;52.358;4.926;2023-04-08T21:12:43;29.55;;;17.70;;
37349;SDS011;23231;52.358;4.926;2023-04-08T21:17:44;31.35;;;18.52;;
37349;SDS011;23231;52.358;4.926;2023-04-08T21:22:45;32.78;;;17.35;;
37349;SDS011;23231;52.358;4.926;2023-04-08T21:27:45;32.28;;;18.00;;
37349;SDS011;23231;52.358;4.926;2023-04-08T21:32:45;31.38;;;19.38;;
37349;SDS011;23231;52.358;4.926;2023-04-08T21:37:46;33.65;;;18.83;;
37349;SDS011;23231;52.358;4.926;2023-04-08T21:42:46;32.83;;;18.35;;
37349;SDS011;23231;52.358;4.926;2023-04-08T21:47:47;35.47;;;19.80;;
37349;SDS011;23231;52.358;4.926;2023-04-08T21:52:49;33.88;;;18.67;;
37349;SDS011;23231;52.358;4.926;2023-04-08T21:57:50;36.88;;;20.90;;
37349;SDS011;23231;52.358;4.926;2023-04-08T22:02:50;35.17;;;21.05;;
37349;SDS011;23231;52.358;4.926;2023-04-08T22:07:51;37.38;;;20.88;;
37349;SDS011;23231;52.358;4.926;2023-04-08T22:12:51;36.28;;;21.10;;
37349;SDS011;23231;52.358;4.926;2023-04-08T22:17:52;35.90;;;21.08;;
37349;SDS011;23231;52.358;4.926;2023-04-08T22:22:52;35.40;;;20.95;;
37349;SDS011;23231;52.358;4.926;2023-04-08T22:27:53;36.25;;;20.88;;
37349;SDS011;23231;52.358;4.926;2023-04-08T22:32:53;36.20;;;19.80;;
37349;SDS011;23231;52.358;4.926;2023-04-08T22:37:53;34.75;;;19.30;;
37349;SDS011;23231;52.358;4.926;2023-04-08T22:42:54;36.53;;;20.92;;
37349;SDS011;23231;52.358;4.926;2023-04-08T22:47:55;39.92;;;21.20;;
37349;SDS011;23231;52.358;4.926;2023-04-08T22:52:55;36.15;;;20.02;;
37349;SDS011;23231;52.358;4.926;2023-04-08T22:57:55;34.85;;;20.20;;
37349;SDS011;23231;52.358;4.926;2023-04-08T23:02:56;36.17;;;20.63;;
37349;SDS011;23231;52.358;4.926;2023-04-08T23:07:56;38.17;;;20.92;;
37349;SDS011;23231;52.358;4.926;2023-04-08T23:12:57;38.60;;;21.08;;
37349;SDS011;23231;52.358;4.926;2023-04-08T23:17:57;36.92;;;20.63;;
37349;SDS011;23231;52.358;4.926;2023-04-08T23:22:57;37.95;;;21.02;;
37349;SDS011;23231;52.358;4.926;2023-04-08T23:27:58;41.65;;;21.50;;
37349;SDS011;23231;52.358;4.926;2023-04-08T23:32:58;35.03;;;21.80;;
37349;SDS011;23231;52.358;4.926;2023-04-08T23:37:59;37.30;;;20.67;;
37349;SDS011;23231;52.358;4.926;2023-04-08T23:42:59;39.72;;;22.50;;
37349;SDS011;23231;52.358;4.926;2023-04-08T23:48:00;38.42;;;21.35;;
37349;SDS011;23231;52.358;4.926;2023-04-08T23:53:00;40.45;;;22.52;;
37349;SDS011;23231;52.358;4.926;2023-04-08T23:58:00;41.75;;;23.38;;
